createdAt,value
2023-01-29T00:11:49.000Z,0.31
2023-01-29T00:41:57.000Z,0.37
2023-01-29T01:11:58.042Z,0.54
2023-01-29T01:41:58.000Z,0.48
2023-01-29T02:12:06.887Z,0.22
2023-01-29T02:42:15.000Z,0.21
2023-01-29T03:12:26.806Z,0.32
2023-01-29T03:42:31.000Z,0.16
2023-01-29T04:12:38.000Z,0.08
2023-01-29T04:42:38.000Z,0.25
2023-01-29T05:12:42.000Z,0.25
2023-01-29T05:42:50.000Z,0.17
2023-01-29T06:12:53.000Z,0.13
2023-01-29T06:42:56.644Z,0.13
2023-01-29T07:12:57.000Z,0.18
2023-01-29T07:42:58.000Z,0.23
2023-01-29T08:13:02.000Z,0.16
2023-01-29T08:43:05.000Z,0.9
2023-01-29T09:13:07.579Z,0.55
2023-01-29T09:43:08.000Z,0.51
2023-01-29T10:13:09.000Z,0.7
2023-01-29T10:43:10.458Z,1.02
2023-01-29T11:13:14.000Z,0.78
2023-01-29T11:43:24.693Z,1.05
2023-01-29T12:13:28.000Z,0.47
2023-01-29T12:43:34.000Z,0.9
2023-01-29T13:13:36.000Z,0.73
2023-01-29T13:43:40.000Z,0.83
2023-01-29T14:13:42.000Z,0.57
2023-01-29T14:43:45.000Z,0.87
2023-01-29T15:13:52.667Z,0.25
2023-01-29T15:43:54.000Z,0.23
2023-01-29T16:13:59.000Z,0.23
2023-01-29T16:44:03.000Z,0.26
2023-01-29T17:14:10.000Z,0.03
2023-01-29T17:44:20.000Z,0.16
2023-01-29T18:14:21.000Z,0.17
2023-01-29T18:44:24.356Z,0.16
2023-01-29T19:14:25.314Z,0.16
2023-01-29T19:44:27.257Z,0.42
2023-01-29T20:14:30.000Z,0.15
2023-01-29T20:44:32.000Z,0.17
2023-01-29T21:14:33.000Z,0.14
2023-01-29T21:44:38.068Z,0.24
2023-01-29T22:14:39.000Z,0.14
2023-01-29T22:44:50.032Z,0.25
2023-01-29T23:14:51.000Z,0.22
2023-01-29T23:44:58.000Z,0.08
